Time;durP1;ratioP1;P1;durP2;ratioP2;P2;SDS_P1;SDS_P2;PMS_P1;PMS_P2;Temp;Humidity;BMP_temperature;BMP_pressure;BME280_temperature;BME280_humidity;BME280_pressure;Samples;Min_cycle;Max_cycle;Signal;HPM_P1;HPM_P2
2021/01/07 00:01:08;;;;;;;44.42;11.63;;;;;;;;;;4940936;29;20059;-83
2021/01/07 00:03:38;;;;;;;46.05;11.55;;;;;;;;;;4944556;29;20059;-83
2021/01/07 00:06:07;;;;;;;42.78;11.38;;;;;;;;;;4955738;29;20051;-83
2021/01/07 00:08:35;;;;;;;50.90;11.50;;;;;;;;;;4956395;28;20051;-83
2021/01/07 00:11:02;;;;;;;50.95;12.48;;;;;;;;;;4955059;28;20097;-82
2021/01/07 00:13:29;;;;;;;47.85;10.82;;;;;;;;;;4950998;28;20109;-82
2021/01/07 00:15:56;;;;;;;52.20;10.52;;;;;;;;;;4954977;29;20051;-82
2021/01/07 00:18:23;;;;;;;47.95;12.63;;;;;;;;;;4956079;28;20083;-82
2021/01/07 00:21:02;;;;;;;45.97;11.13;;;;;;;;;;4951558;28;20044;-83
2021/01/07 00:23:28;;;;;;;53.80;12.15;;;;;;;;;;4951502;29;20083;-83
2021/01/07 00:25:55;;;;;;;122.40;13.82;;;;;;;;;;4962198;28;20048;-83
2021/01/07 00:28:24;;;;;;;109.25;12.55;;;;;;;;;;4970753;28;20083;-82
2021/01/07 00:30:51;;;;;;;93.28;13.40;;;;;;;;;;4953880;28;20642;-83
2021/01/07 00:33:19;;;;;;;114.18;13.13;;;;;;;;;;4955695;28;20055;-83
2021/01/07 00:35:47;;;;;;;85.75;14.40;;;;;;;;;;4954883;28;20086;-83
2021/01/07 00:38:14;;;;;;;109.18;13.10;;;;;;;;;;4954644;29;20055;-82
2021/01/07 00:40:41;;;;;;;118.68;14.05;;;;;;;;;;4950722;28;20047;-83
2021/01/07 00:43:08;;;;;;;74.18;11.88;;;;;;;;;;4949887;29;20082;-83
2021/01/07 00:45:35;;;;;;;97.55;13.27;;;;;;;;;;4935460;29;20751;-83
2021/01/07 00:48:01;;;;;;;112.30;13.50;;;;;;;;;;4943421;29;20052;-83
2021/01/07 00:50:29;;;;;;;106.38;13.88;;;;;;;;;;4935661;29;20052;-83
2021/01/07 00:52:56;;;;;;;147.43;15.18;;;;;;;;;;4935148;29;20052;-82
2021/01/07 00:55:23;;;;;;;135.95;13.75;;;;;;;;;;4946544;29;20055;-82
2021/01/07 00:57:49;;;;;;;103.95;13.20;;;;;;;;;;4953938;28;20074;-82
2021/01/07 01:00:19;;;;;;;95.47;12.95;;;;;;;;;;4953947;28;20043;-82
2021/01/07 01:02:46;;;;;;;139.13;13.45;;;;;;;;;;4970038;28;20119;-82
2021/01/07 01:05:13;;;;;;;84.30;11.88;;;;;;;;;;4969987;28;20551;-82
2021/01/07 01:07:40;;;;;;;80.63;12.63;;;;;;;;;;4959216;28;20051;-82
2021/01/07 01:10:08;;;;;;;127.35;13.55;;;;;;;;;;4955077;28;20066;-83
2021/01/07 01:12:35;;;;;;;92.38;12.93;;;;;;;;;;4943442;28;20058;-82
2021/01/07 01:15:05;;;;;;;119.60;14.02;;;;;;;;;;4934376;29;20064;-83
2021/01/07 01:17:35;;;;;;;126.90;13.98;;;;;;;;;;4943332;29;20860;-83
2021/01/07 01:20:01;;;;;;;53.03;12.23;;;;;;;;;;4954721;28;20464;-81
2021/01/07 01:22:32;;;;;;;102.53;12.13;;;;;;;;;;4953107;28;20055;-82
2021/01/07 01:25:00;;;;;;;84.47;13.38;;;;;;;;;;4948535;28;20086;-82
2021/01/07 01:27:27;;;;;;;65.03;11.73;;;;;;;;;;4952903;28;20055;-82
2021/01/07 01:29:58;;;;;;;66.85;11.50;;;;;;;;;;4954976;28;20097;-83
2021/01/07 01:32:24;;;;;;;58.33;11.60;;;;;;;;;;4953619;29;20059;-83
2021/01/07 01:34:52;;;;;;;56.20;11.77;;;;;;;;;;4953544;29;20123;-82
2021/01/07 01:37:19;;;;;;;63.80;12.18;;;;;;;;;;4945916;29;20052;-82
2021/01/07 01:39:45;;;;;;;48.13;11.10;;;;;;;;;;4934132;29;20777;-82
2021/01/07 01:42:12;;;;;;;51.35;11.73;;;;;;;;;;4933102;29;20059;-82
2021/01/07 01:44:39;;;;;;;54.95;11.13;;;;;;;;;;4937098;29;20127;-82
2021/01/07 01:47:06;;;;;;;52.40;12.05;;;;;;;;;;4954568;28;20090;-82
2021/01/07 01:49:32;;;;;;;49.60;10.65;;;;;;;;;;4953501;28;20102;-83
2021/01/07 01:51:59;;;;;;;54.20;13.27;;;;;;;;;;4954338;28;20083;-82
2021/01/07 01:54:26;;;;;;;51.47;11.02;;;;;;;;;;4953280;28;20055;-82
2021/01/07 01:56:55;;;;;;;48.10;12.25;;;;;;;;;;4954366;28;20154;-82
2021/01/07 01:59:22;;;;;;;52.05;12.10;;;;;;;;;;4952769;28;20784;-82
2021/01/07 02:01:48;;;;;;;44.78;11.90;;;;;;;;;;4952993;29;20055;-84
2021/01/07 02:04:16;;;;;;;52.47;12.00;;;;;;;;;;4953889;28;20051;-81
2021/01/07 02:06:43;;;;;;;60.05;12.20;;;;;;;;;;4934378;29;20082;-81
2021/01/07 02:09:10;;;;;;;61.67;12.15;;;;;;;;;;4934022;29;20592;-82
2021/01/07 02:11:39;;;;;;;42.95;12.18;;;;;;;;;;4934052;29;20096;-81
2021/01/07 02:14:19;;;;;;;49.33;10.90;;;;;;;;;;4935388;29;20086;-81
2021/01/07 02:16:46;;;;;;;61.08;11.50;;;;;;;;;;4951898;28;20102;-82
2021/01/07 02:19:13;;;;;;;54.65;12.05;;;;;;;;;;4951125;29;20102;-81
2021/01/07 02:21:46;;;;;;;48.92;11.50;;;;;;;;;;4933323;29;20513;-81
2021/01/07 02:24:13;;;;;;;45.95;10.30;;;;;;;;;;4942188;29;20489;-81
2021/01/07 02:26:41;;;;;;;41.60;11.20;;;;;;;;;;4948398;29;20127;-81
2021/01/07 02:29:08;;;;;;;45.67;10.48;;;;;;;;;;4945572;29;20048;-81
2021/01/07 02:31:34;;;;;;;38.75;9.70;;;;;;;;;;4933337;29;20054;-81
2021/01/07 02:34:01;;;;;;;38.17;10.50;;;;;;;;;;4933607;29;20106;-81
2021/01/07 02:36:28;;;;;;;49.65;11.63;;;;;;;;;;4945408;29;20055;-82
2021/01/07 02:38:55;;;;;;;39.65;10.98;;;;;;;;;;4952688;28;20091;-82
2021/01/07 02:41:21;;;;;;;37.33;10.15;;;;;;;;;;4940471;28;20072;-82
2021/01/07 02:43:48;;;;;;;40.20;10.48;;;;;;;;;;4933434;29;20115;-82
2021/01/07 02:46:15;;;;;;;37.13;11.10;;;;;;;;;;4946033;29;20053;-82
2021/01/07 02:48:48;;;;;;;40.80;10.60;;;;;;;;;;4947330;28;20536;-82
2021/01/07 02:51:15;;;;;;;40.28;10.93;;;;;;;;;;4933657;29;20119;-83
2021/01/07 02:53:42;;;;;;;38.33;10.48;;;;;;;;;;4954744;28;20141;-82
2021/01/07 02:56:11;;;;;;;41.80;11.15;;;;;;;;;;4946140;29;20103;-82
2021/01/07 02:58:38;;;;;;;53.85;11.57;;;;;;;;;;4947705;29;20691;-82
2021/01/07 03:01:05;;;;;;;62.50;11.48;;;;;;;;;;4956227;28;20106;-82
2021/01/07 03:03:31;;;;;;;90.90;13.98;;;;;;;;;;4956335;28;20110;-82
2021/01/07 03:05:58;;;;;;;79.18;12.82;;;;;;;;;;4957702;28;20098;-82
2021/01/07 03:08:25;;;;;;;92.03;14.98;;;;;;;;;;4957543;28;20059;-82
2021/01/07 03:10:51;;;;;;;72.10;13.43;;;;;;;;;;4956168;28;20054;-82
2021/01/07 03:13:23;;;;;;;66.55;13.13;;;;;;;;;;4955676;28;20145;-82
2021/01/07 03:15:50;;;;;;;57.05;13.27;;;;;;;;;;4957412;28;20083;-82
2021/01/07 03:18:16;;;;;;;58.92;13.65;;;;;;;;;;4957927;29;20055;-82
2021/01/07 03:20:43;;;;;;;68.32;13.32;;;;;;;;;;4956073;28;20082;-81
2021/01/07 03:23:10;;;;;;;53.75;12.68;;;;;;;;;;4938585;29;20056;-81
2021/01/07 03:25:36;;;;;;;53.03;13.07;;;;;;;;;;4956909;28;20052;-82
2021/01/07 03:28:03;;;;;;;51.30;11.32;;;;;;;;;;4956029;29;20153;-81
2021/01/07 03:30:31;;;;;;;90.32;16.77;;;;;;;;;;4955547;28;20048;-81
2021/01/07 03:32:58;;;;;;;65.38;13.85;;;;;;;;;;4956617;28;20055;-81
2021/01/07 03:35:24;;;;;;;56.85;12.80;;;;;;;;;;4954116;29;20504;-81
2021/01/07 03:37:51;;;;;;;55.78;12.73;;;;;;;;;;4945468;28;20090;-81
2021/01/07 03:40:17;;;;;;;45.72;11.90;;;;;;;;;;4936642;29;20167;-81
2021/01/07 03:42:44;;;;;;;67.53;13.25;;;;;;;;;;4952216;29;20107;-81
2021/01/07 03:45:11;;;;;;;60.67;12.93;;;;;;;;;;4965868;28;20083;-81
2021/01/07 03:47:38;;;;;;;83.30;14.02;;;;;;;;;;4937024;29;20474;-82
2021/01/07 03:50:05;;;;;;;64.53;12.55;;;;;;;;;;4936119;29;20102;-82
2021/01/07 03:52:32;;;;;;;71.30;13.57;;;;;;;;;;4936190;29;20052;-82
2021/01/07 03:54:59;;;;;;;66.80;11.90;;;;;;;;;;4955308;29;20110;-81
2021/01/07 03:57:25;;;;;;;53.78;12.43;;;;;;;;;;4955701;29;20051;-81
2021/01/07 03:59:52;;;;;;;57.20;12.63;;;;;;;;;;4942603;29;20106;-82
2021/01/07 04:02:19;;;;;;;47.15;11.50;;;;;;;;;;4945280;29;20489;-82
2021/01/07 04:04:46;;;;;;;57.58;11.80;;;;;;;;;;4954062;28;20591;-81
2021/01/07 04:07:13;;;;;;;48.03;12.02;;;;;;;;;;4936229;29;20397;-81
2021/01/07 04:09:40;;;;;;;54.83;11.77;;;;;;;;;;4937420;29;20051;-81
2021/01/07 04:12:07;;;;;;;49.08;13.13;;;;;;;;;;4943807;29;20074;-81
2021/01/07 04:14:33;;;;;;;51.35;12.38;;;;;;;;;;4955198;29;20056;-81
2021/01/07 04:17:03;;;;;;;49.63;11.55;;;;;;;;;;4962880;28;20087;-81
2021/01/07 04:19:29;;;;;;;49.53;12.48;;;;;;;;;;4956601;28;20134;-81
2021/01/07 04:22:03;;;;;;;38.88;10.73;;;;;;;;;;4954283;28;20105;-81
2021/01/07 04:24:29;;;;;;;49.60;10.82;;;;;;;;;;4956328;28;20093;-81
2021/01/07 04:26:56;;;;;;;37.30;9.70;;;;;;;;;;4954960;29;20086;-81
2021/01/07 04:29:27;;;;;;;43.90;11.73;;;;;;;;;;4946344;28;20111;-82
2021/01/07 04:31:54;;;;;;;45.15;11.05;;;;;;;;;;4961859;28;20079;-82
2021/01/07 04:34:21;;;;;;;42.10;10.35;;;;;;;;;;4936535;29;20448;-82
2021/01/07 04:37:01;;;;;;;37.00;9.80;;;;;;;;;;4951758;28;20134;-82
2021/01/07 04:39:27;;;;;;;52.78;12.15;;;;;;;;;;4960021;28;20448;-82
2021/01/07 04:41:56;;;;;;;57.45;12.73;;;;;;;;;;4939853;28;20728;-82
2021/01/07 04:44:23;;;;;;;58.92;12.80;;;;;;;;;;4935225;29;20087;-82
2021/01/07 04:46:49;;;;;;;68.43;14.65;;;;;;;;;;4946965;29;20078;-82
2021/01/07 04:49:16;;;;;;;59.17;12.13;;;;;;;;;;4955686;28;20047;-82
2021/01/07 04:51:43;;;;;;;86.82;14.77;;;;;;;;;;4949463;28;20082;-82
2021/01/07 04:54:12;;;;;;;88.10;14.88;;;;;;;;;;4955548;28;20178;-82
2021/01/07 04:56:43;;;;;;;58.88;13.07;;;;;;;;;;4954254;28;20437;-82
2021/01/07 04:59:11;;;;;;;64.55;14.32;;;;;;;;;;4953924;29;20066;-82
2021/01/07 05:01:41;;;;;;;60.00;12.82;;;;;;;;;;4951240;28;20095;-83
2021/01/07 05:04:09;;;;;;;62.40;12.02;;;;;;;;;;4954345;29;20047;-83
2021/01/07 05:06:36;;;;;;;57.38;11.70;;;;;;;;;;4955467;28;20043;-83
2021/01/07 05:09:05;;;;;;;50.63;11.13;;;;;;;;;;4955221;28;20059;-83
2021/01/07 05:11:32;;;;;;;48.70;11.75;;;;;;;;;;4954165;29;20114;-83
2021/01/07 05:14:03;;;;;;;60.83;11.40;;;;;;;;;;4955418;28;20079;-83
2021/01/07 05:16:34;;;;;;;54.38;11.50;;;;;;;;;;4954062;28;20058;-84
2021/01/07 05:19:02;;;;;;;65.53;12.07;;;;;;;;;;4955450;28;20062;-83
2021/01/07 05:21:32;;;;;;;54.55;10.65;;;;;;;;;;4953540;29;20055;-83
2021/01/07 05:23:59;;;;;;;48.70;10.05;;;;;;;;;;4953023;28;20479;-84
2021/01/07 05:26:33;;;;;;;54.67;10.07;;;;;;;;;;4954692;29;20473;-83
2021/01/07 05:29:00;;;;;;;66.93;10.33;;;;;;;;;;4954008;28;20137;-83
2021/01/07 05:31:29;;;;;;;56.35;9.57;;;;;;;;;;4951939;29;20055;-83
2021/01/07 05:33:56;;;;;;;68.35;11.43;;;;;;;;;;4941931;29;20043;-83
2021/01/07 05:36:27;;;;;;;93.72;11.35;;;;;;;;;;4952318;29;20154;-83
2021/01/07 05:39:01;;;;;;;76.30;9.95;;;;;;;;;;4952207;28;20138;-84
2021/01/07 05:41:29;;;;;;;54.63;10.23;;;;;;;;;;4967574;28;20047;-84
2021/01/07 05:43:59;;;;;;;46.20;10.00;;;;;;;;;;4970408;28;20043;-83
2021/01/07 05:46:26;;;;;;;60.50;10.98;;;;;;;;;;4967629;28;20671;-84
2021/01/07 05:48:58;;;;;;;50.33;9.32;;;;;;;;;;4965186;28;20899;-83
2021/01/07 05:51:37;;;;;;;41.42;9.55;;;;;;;;;;4950419;29;20075;-84
2021/01/07 05:54:04;;;;;;;35.10;9.75;;;;;;;;;;4952931;28;20055;-83
2021/01/07 05:56:32;;;;;;;45.83;9.45;;;;;;;;;;4954374;28;20051;-83
2021/01/07 05:59:09;;;;;;;33.95;8.02;;;;;;;;;;4954367;28;20047;-83
2021/01/07 06:01:36;;;;;;;;;;;;;;;;;;4965113;28;20546;-84
2021/01/07 06:04:10;;;;;;;29.65;7.82;;;;;;;;;;4954419;28;19986;-83
2021/01/07 06:06:37;;;;;;;35.45;9.23;;;;;;;;;;4952489;29;20047;-83
2021/01/07 06:09:04;;;;;;;34.53;7.35;;;;;;;;;;4952876;28;20106;-82
2021/01/07 06:11:35;;;;;;;37.75;8.50;;;;;;;;;;4952376;28;20079;-80
2021/01/07 06:14:03;;;;;;;32.53;7.85;;;;;;;;;;4952357;28;20141;-85
2021/01/07 06:16:29;;;;;;;29.35;7.68;;;;;;;;;;4952247;29;20043;-83
2021/01/07 06:19:17;;;;;;;29.40;8.02;;;;;;;;;;4952785;29;20052;-83
2021/01/07 06:21:50;;;;;;;30.92;8.40;;;;;;;;;;4952411;28;20059;-84
2021/01/07 06:24:17;;;;;;;21.38;6.90;;;;;;;;;;4952701;29;20090;-81
2021/01/07 06:26:45;;;;;;;30.60;8.25;;;;;;;;;;4952347;28;20139;-82
2021/01/07 06:29:12;;;;;;;31.50;9.20;;;;;;;;;;4957912;28;20082;-82
2021/01/07 06:31:39;;;;;;;32.05;9.02;;;;;;;;;;4949438;28;20138;-82
2021/01/07 06:34:06;;;;;;;39.65;9.10;;;;;;;;;;4949923;28;20051;-82
2021/01/07 06:36:37;;;;;;;37.08;9.35;;;;;;;;;;4953402;28;20055;-81
2021/01/07 06:39:04;;;;;;;41.42;8.75;;;;;;;;;;4958217;28;20051;-81
2021/01/07 06:41:31;;;;;;;42.63;10.48;;;;;;;;;;4971247;28;20059;-82
2021/01/07 06:43:58;;;;;;;52.47;10.88;;;;;;;;;;4940747;29;20452;-82
2021/01/07 06:46:47;;;;;;;45.38;10.90;;;;;;;;;;4955237;28;20055;-83
2021/01/07 06:49:29;;;;;;;46.00;9.55;;;;;;;;;;4955669;29;20729;-81
2021/01/07 06:52:01;;;;;;;49.83;11.13;;;;;;;;;;4955127;29;20075;-81
2021/01/07 06:54:36;;;;;;;64.18;11.90;;;;;;;;;;4955465;29;20139;-81
2021/01/07 06:57:05;;;;;;;48.38;10.82;;;;;;;;;;4955750;28;20533;-81
2021/01/07 06:59:33;;;;;;;41.55;10.50;;;;;;;;;;4941200;28;20059;-81
2021/01/07 07:02:00;;;;;;;48.42;10.30;;;;;;;;;;4955218;29;20561;-82
2021/01/07 07:04:30;;;;;;;46.38;9.98;;;;;;;;;;4970997;28;20049;-81
2021/01/07 07:07:21;;;;;;;39.63;9.75;;;;;;;;;;4951396;28;20075;-81
2021/01/07 07:09:52;;;;;;;41.83;9.32;;;;;;;;;;4960021;28;20054;-81
2021/01/07 07:12:31;;;;;;;40.15;9.60;;;;;;;;;;4959829;28;20130;-81
2021/01/07 07:14:58;;;;;;;55.95;9.93;;;;;;;;;;4960234;28;20055;-81
2021/01/07 07:17:25;;;;;;;41.63;10.35;;;;;;;;;;4974314;28;20567;-81
2021/01/07 07:19:54;;;;;;;55.33;10.27;;;;;;;;;;4960006;28;20090;-81
2021/01/07 07:22:21;;;;;;;41.72;10.35;;;;;;;;;;4958519;28;20077;-81
2021/01/07 07:24:51;;;;;;;45.70;10.13;;;;;;;;;;4959776;28;20049;-81
2021/01/07 07:27:18;;;;;;;47.22;9.05;;;;;;;;;;4955235;28;20074;-81
2021/01/07 07:29:46;;;;;;;38.97;9.45;;;;;;;;;;4958574;29;20560;-81
2021/01/07 07:32:25;;;;;;;35.65;7.88;;;;;;;;;;4954753;28;20051;-81
2021/01/07 07:34:53;;;;;;;;;;;;;;;;;;4960117;29;20134;-80
2021/01/07 07:37:20;;;;;;;42.53;9.68;;;;;;;;;;4973898;28;20016;-80
2021/01/07 07:39:49;;;;;;;40.67;9.20;;;;;;;;;;4954827;28;20055;-79
2021/01/07 07:42:20;;;;;;;43.80;9.30;;;;;;;;;;4954757;28;20134;-81
2021/01/07 07:44:48;;;;;;;43.53;9.90;;;;;;;;;;4953295;29;20089;-80
2021/01/07 07:47:15;;;;;;;34.80;9.05;;;;;;;;;;4953290;29;20075;-80
2021/01/07 07:49:41;;;;;;;42.75;9.75;;;;;;;;;;4952427;29;20075;-79
2021/01/07 07:52:09;;;;;;;57.83;11.98;;;;;;;;;;4951516;28;20059;-81
2021/01/07 07:54:36;;;;;;;65.55;11.15;;;;;;;;;;4951185;29;20134;-80
2021/01/07 07:57:05;;;;;;;70.00;11.07;;;;;;;;;;4956010;28;20110;-80
2021/01/07 07:59:33;;;;;;;71.22;11.38;;;;;;;;;;4952817;29;20051;-80
2021/01/07 08:01:59;;;;;;;76.90;10.95;;;;;;;;;;4950099;28;20093;-80
2021/01/07 08:04:28;;;;;;;84.57;10.57;;;;;;;;;;4951161;29;20746;-81
2021/01/07 08:06:55;;;;;;;67.13;10.52;;;;;;;;;;4953299;29;20100;-80
2021/01/07 08:09:22;;;;;;;81.25;11.60;;;;;;;;;;4967987;28;20656;-81
2021/01/07 08:11:52;;;;;;;77.18;11.30;;;;;;;;;;4954886;28;20102;-81
2021/01/07 08:14:24;;;;;;;80.97;11.02;;;;;;;;;;4956720;28;20568;-82
2021/01/07 08:16:57;;;;;;;75.80;11.32;;;;;;;;;;4955862;28;20082;-81
2021/01/07 08:19:23;;;;;;;70.85;10.15;;;;;;;;;;4956327;28;20051;-81
2021/01/07 08:21:54;;;;;;;90.90;10.55;;;;;;;;;;4954255;28;20113;-81
2021/01/07 08:24:22;;;;;;;94.03;11.90;;;;;;;;;;4954803;28;20846;-82
2021/01/07 08:27:05;;;;;;;53.65;9.45;;;;;;;;;;4956433;29;20078;-81
2021/01/07 08:29:34;;;;;;;64.70;10.50;;;;;;;;;;4954998;29;20074;-82
2021/01/07 08:32:01;;;;;;;53.92;10.52;;;;;;;;;;4954492;29;20153;-81
2021/01/07 08:34:30;;;;;;;58.83;10.43;;;;;;;;;;4955880;28;20508;-81
2021/01/07 08:37:07;;;;;;;61.03;10.02;;;;;;;;;;4961371;28;20150;-82
2021/01/07 08:39:41;;;;;;;87.15;11.63;;;;;;;;;;4943905;29;20142;-83
2021/01/07 08:42:08;;;;;;;85.82;11.93;;;;;;;;;;4956122;28;20133;-82
2021/01/07 08:44:36;;;;;;;66.63;11.68;;;;;;;;;;4948644;28;20521;-82
2021/01/07 08:47:03;;;;;;;79.28;10.43;;;;;;;;;;4955528;28;20082;-82
2021/01/07 08:49:30;;;;;;;73.60;11.07;;;;;;;;;;4955405;28;20090;-82
2021/01/07 08:52:00;;;;;;;67.03;11.43;;;;;;;;;;4953225;28;20141;-82
2021/01/07 08:54:27;;;;;;;85.60;11.52;;;;;;;;;;4954419;28;20095;-83
2021/01/07 08:56:55;;;;;;;62.95;10.02;;;;;;;;;;4954216;29;20106;-81
2021/01/07 08:59:26;;;;;;;69.68;11.23;;;;;;;;;;4957473;28;20102;-82
2021/01/07 09:01:57;;;;;;;63.60;11.00;;;;;;;;;;4954810;28;20134;-82
2021/01/07 09:04:25;;;;;;;59.88;10.32;;;;;;;;;;4953523;29;20129;-82
2021/01/07 09:06:55;;;;;;;55.05;10.35;;;;;;;;;;4953777;29;20081;-82
2021/01/07 09:09:21;;;;;;;48.05;10.43;;;;;;;;;;4954922;28;20089;-82
2021/01/07 09:11:48;;;;;;;52.38;10.10;;;;;;;;;;4954830;28;20142;-81
2021/01/07 09:14:33;;;;;;;50.08;10.60;;;;;;;;;;4953896;29;20731;-81
2021/01/07 09:17:00;;;;;;;47.53;10.23;;;;;;;;;;4955184;28;20087;-81
2021/01/07 09:19:26;;;;;;;40.08;8.70;;;;;;;;;;4953991;29;20496;-82
2021/01/07 09:22:00;;;;;;;40.88;9.00;;;;;;;;;;4953605;28;20768;-81
2021/01/07 09:24:31;;;;;;;40.60;8.95;;;;;;;;;;4954915;28;20079;-82
2021/01/07 09:27:04;;;;;;;36.40;9.07;;;;;;;;;;4934842;29;20127;-82
2021/01/07 09:29:41;;;;;;;41.60;9.32;;;;;;;;;;4935941;29;20505;-81
2021/01/07 09:32:09;;;;;;;34.55;8.98;;;;;;;;;;4949308;29;20103;-81
2021/01/07 09:34:36;;;;;;;53.20;10.35;;;;;;;;;;4950341;29;20071;-81
2021/01/07 09:37:08;;;;;;;64.25;11.48;;;;;;;;;;4950465;29;20147;-81
2021/01/07 09:39:38;;;;;;;69.18;10.95;;;;;;;;;;4964873;28;20457;-81
2021/01/07 09:42:05;;;;;;;53.40;11.35;;;;;;;;;;4954687;29;20437;-83
2021/01/07 09:44:33;;;;;;;49.42;9.18;;;;;;;;;;4954751;28;20058;-81
2021/01/07 09:47:01;;;;;;;41.33;8.43;;;;;;;;;;4954661;28;20381;-80
2021/01/07 09:49:32;;;;;;;43.55;9.23;;;;;;;;;;4955082;28;20075;-81
2021/01/07 09:52:00;;;;;;;45.33;9.18;;;;;;;;;;4954464;28;20481;-80
2021/01/07 09:54:27;;;;;;;51.63;9.38;;;;;;;;;;4953053;29;20613;-80
2021/01/07 09:56:54;;;;;;;49.28;9.82;;;;;;;;;;4944788;29;20106;-79
2021/01/07 09:59:22;;;;;;;41.88;8.90;;;;;;;;;;4968486;28;20102;-80
2021/01/07 10:01:52;;;;;;;46.40;8.63;;;;;;;;;;4967555;28;20114;-80
2021/01/07 10:04:19;;;;;;;42.33;7.88;;;;;;;;;;4951450;28;20484;-79
2021/01/07 10:06:46;;;;;;;33.15;9.52;;;;;;;;;;4953373;28;20047;-78
2021/01/07 10:09:15;;;;;;;29.95;7.45;;;;;;;;;;4953488;28;20043;-79
2021/01/07 10:11:42;;;;;;;34.25;8.32;;;;;;;;;;4952395;28;20113;-78
2021/01/07 10:14:08;;;;;;;46.08;8.90;;;;;;;;;;4953698;28;20063;-79
2021/01/07 10:16:35;;;;;;;25.92;7.45;;;;;;;;;;4953995;28;20665;-78
2021/01/07 10:19:02;;;;;;;30.25;7.15;;;;;;;;;;4949782;29;20189;-79
2021/01/07 10:21:31;;;;;;;28.17;7.15;;;;;;;;;;4949931;29;20131;-78
2021/01/07 10:23:57;;;;;;;29.52;7.40;;;;;;;;;;4953912;28;20127;-79
2021/01/07 10:26:24;;;;;;;35.85;8.38;;;;;;;;;;4952320;29;20051;-80
2021/01/07 10:28:51;;;;;;;41.60;9.43;;;;;;;;;;4953211;28;20131;-78
2021/01/07 10:31:18;;;;;;;30.88;9.52;;;;;;;;;;4948728;29;20504;-80
2021/01/07 10:33:46;;;;;;;26.45;7.82;;;;;;;;;;4952314;29;20090;-80
2021/01/07 10:36:18;;;;;;;37.28;7.97;;;;;;;;;;4954317;28;20178;-80
2021/01/07 10:38:47;;;;;;;27.67;7.43;;;;;;;;;;4952435;29;20456;-80
2021/01/07 10:41:18;;;;;;;22.48;6.97;;;;;;;;;;4952106;28;20055;-80
2021/01/07 10:43:45;;;;;;;25.65;7.03;;;;;;;;;;4952607;29;20110;-79
2021/01/07 10:46:13;;;;;;;25.25;5.65;;;;;;;;;;4952446;29;20493;-80
2021/01/07 10:48:44;;;;;;;23.02;6.53;;;;;;;;;;4950742;29;20047;-80
2021/01/07 10:51:11;;;;;;;23.77;6.75;;;;;;;;;;4946838;29;20043;-80
2021/01/07 10:54:03;;;;;;;26.13;6.00;;;;;;;;;;4952416;29;20106;-80
2021/01/07 10:56:49;;;;;;;26.13;6.43;;;;;;;;;;4952734;28;20094;-80
2021/01/07 10:59:16;;;;;;;;;;;;;;;;;;4962349;28;20107;-80
2021/01/07 11:01:43;;;;;;;28.58;6.25;;;;;;;;;;4967397;28;20414;-80
2021/01/07 11:04:16;;;;;;;27.13;6.47;;;;;;;;;;4949210;29;20280;-80
2021/01/07 11:06:53;;;;;;;21.58;5.47;;;;;;;;;;4949198;29;20708;-80
2021/01/07 11:09:24;;;;;;;27.75;7.35;;;;;;;;;;4949334;29;20413;-80
2021/01/07 11:11:53;;;;;;;33.28;6.80;;;;;;;;;;4951767;28;20588;-80
2021/01/07 11:14:32;;;;;;;29.13;7.10;;;;;;;;;;4952859;28;20051;-80
2021/01/07 11:17:06;;;;;;;23.20;5.93;;;;;;;;;;4949179;29;20059;-80
2021/01/07 11:19:34;;;;;;;24.38;6.28;;;;;;;;;;4968584;28;20063;-80
2021/01/07 11:22:05;;;;;;;22.50;6.28;;;;;;;;;;4964861;28;20051;-80
2021/01/07 11:24:32;;;;;;;22.60;6.47;;;;;;;;;;4967150;28;20058;-80
2021/01/07 11:26:59;;;;;;;24.88;6.32;;;;;;;;;;4953814;28;20086;-80
2021/01/07 11:29:26;;;;;;;27.13;6.88;;;;;;;;;;4953387;28;20127;-80
2021/01/07 11:31:53;;;;;;;18.63;5.50;;;;;;;;;;4955160;29;20511;-80
2021/01/07 11:34:20;;;;;;;29.52;6.60;;;;;;;;;;4955518;28;20074;-80
2021/01/07 11:36:53;;;;;;;26.80;5.90;;;;;;;;;;4955934;28;20134;-80
2021/01/07 11:39:22;;;;;;;29.50;6.78;;;;;;;;;;4956794;28;20126;-80
2021/01/07 11:41:58;;;;;;;28.30;7.25;;;;;;;;;;4955419;28;20142;-80
2021/01/07 11:44:31;;;;;;;24.42;5.95;;;;;;;;;;4955599;28;20059;-80
2021/01/07 11:47:05;;;;;;;23.92;5.82;;;;;;;;;;4956668;28;20071;-80
2021/01/07 11:49:33;;;;;;;38.90;11.50;;;;;;;;;;4956858;28;20127;-80
2021/01/07 11:52:02;;;;;;;84.28;26.55;;;;;;;;;;4955016;28;20083;-80
2021/01/07 11:54:34;;;;;;;35.30;11.25;;;;;;;;;;4956613;29;20736;-80
2021/01/07 11:57:01;;;;;;;24.23;7.68;;;;;;;;;;4956518;28;20588;-80
2021/01/07 11:59:30;;;;;;;31.85;8.80;;;;;;;;;;4971284;28;20051;-80
2021/01/07 12:01:57;;;;;;;34.08;11.20;;;;;;;;;;4971200;28;20146;-80
2021/01/07 12:04:24;;;;;;;20.20;6.25;;;;;;;;;;4956201;28;20047;-80
2021/01/07 12:06:58;;;;;;;25.05;5.93;;;;;;;;;;4956426;28;20075;-81
2021/01/07 12:09:31;;;;;;;21.85;7.35;;;;;;;;;;4971190;28;20109;-80
2021/01/07 12:12:05;;;;;;;20.77;5.57;;;;;;;;;;4970393;28;20093;-80
2021/01/07 12:14:51;;;;;;;30.92;7.38;;;;;;;;;;4963815;28;20519;-80
2021/01/07 12:17:18;;;;;;;31.85;8.57;;;;;;;;;;4954833;28;20640;-80
2021/01/07 12:19:45;;;;;;;21.63;5.22;;;;;;;;;;4963023;28;20055;-80
2021/01/07 12:22:14;;;;;;;35.47;9.75;;;;;;;;;;4971012;28;20094;-80
2021/01/07 12:25:04;;;;;;;21.80;5.18;;;;;;;;;;4968396;28;20047;-80
2021/01/07 12:27:37;;;;;;;21.15;6.35;;;;;;;;;;4970213;28;20063;-80
2021/01/07 12:30:04;;;;;;;17.50;6.10;;;;;;;;;;4971218;28;20130;-80
2021/01/07 12:32:44;;;;;;;19.88;5.35;;;;;;;;;;4955391;28;20493;-80
2021/01/07 12:35:21;;;;;;;27.52;7.60;;;;;;;;;;4954728;28;20051;-80
2021/01/07 12:37:48;;;;;;;19.30;5.25;;;;;;;;;;4962640;28;20133;-80
2021/01/07 12:40:19;;;;;;;24.38;5.80;;;;;;;;;;4971081;28;20110;-80
2021/01/07 12:42:48;;;;;;;19.17;5.07;;;;;;;;;;4970643;28;20145;-80
2021/01/07 12:45:16;;;;;;;16.80;5.22;;;;;;;;;;4955866;28;20056;-80
2021/01/07 12:47:43;;;;;;;19.02;5.40;;;;;;;;;;4970369;28;20444;-80
2021/01/07 12:50:11;;;;;;;18.15;4.53;;;;;;;;;;4954017;29;20054;-80
2021/01/07 12:52:40;;;;;;;17.40;5.03;;;;;;;;;;4955304;28;20051;-81
2021/01/07 12:55:09;;;;;;;17.83;5.22;;;;;;;;;;4954522;28;20142;-81
2021/01/07 12:57:42;;;;;;;20.35;5.25;;;;;;;;;;4955742;28;20083;-80
2021/01/07 13:00:13;;;;;;;18.75;6.20;;;;;;;;;;4970078;28;20082;-79
2021/01/07 13:02:44;;;;;;;14.13;5.30;;;;;;;;;;4968486;28;20059;-79
2021/01/07 13:05:30;;;;;;;19.88;5.82;;;;;;;;;;4954389;29;20047;-79
2021/01/07 13:08:01;;;;;;;22.27;6.28;;;;;;;;;;4948166;29;20082;-79
2021/01/07 13:10:29;;;;;;;14.98;4.95;;;;;;;;;;4954219;28;20122;-79
2021/01/07 13:12:58;;;;;;;18.67;5.75;;;;;;;;;;4955028;28;20102;-79
2021/01/07 13:15:25;;;;;;;18.15;5.15;;;;;;;;;;4955158;28;20476;-79
2021/01/07 13:17:52;;;;;;;15.70;4.80;;;;;;;;;;4953965;29;20086;-80
2021/01/07 13:20:19;;;;;;;14.85;4.63;;;;;;;;;;4955280;28;20071;-79
2021/01/07 13:22:46;;;;;;;20.27;6.30;;;;;;;;;;4954420;28;20134;-79
2021/01/07 13:25:16;;;;;;;15.48;5.20;;;;;;;;;;4953587;29;20055;-79
2021/01/07 13:27:43;;;;;;;18.08;6.00;;;;;;;;;;4953580;28;20043;-79
2021/01/07 13:30:11;;;;;;;17.65;5.45;;;;;;;;;;4953526;29;20055;-79
2021/01/07 13:32:38;;;;;;;19.67;4.32;;;;;;;;;;4953194;28;20121;-80
2021/01/07 13:35:07;;;;;;;16.35;4.82;;;;;;;;;;4947001;29;20054;-79
2021/01/07 13:37:37;;;;;;;12.25;4.40;;;;;;;;;;4961309;28;20055;-79
2021/01/07 13:40:04;;;;;;;10.95;3.17;;;;;;;;;;4954528;28;20054;-79
2021/01/07 13:42:30;;;;;;;11.90;3.75;;;;;;;;;;4952932;29;20051;-79
2021/01/07 13:44:58;;;;;;;13.98;4.28;;;;;;;;;;4953251;28;20074;-79
2021/01/07 13:47:29;;;;;;;11.32;4.18;;;;;;;;;;4954497;28;20055;-79
2021/01/07 13:49:58;;;;;;;15.55;3.70;;;;;;;;;;4954722;28;20817;-79
2021/01/07 13:52:27;;;;;;;15.18;5.22;;;;;;;;;;4954095;28;20087;-81
2021/01/07 13:54:54;;;;;;;9.60;3.42;;;;;;;;;;4952757;29;20078;-80
2021/01/07 13:57:20;;;;;;;9.93;4.15;;;;;;;;;;4954074;28;20514;-80
2021/01/07 13:59:47;;;;;;;13.00;3.58;;;;;;;;;;4954039;28;20055;-80
2021/01/07 14:02:15;;;;;;;7.38;3.17;;;;;;;;;;4952982;29;20477;-80
2021/01/07 14:04:42;;;;;;;9.07;3.20;;;;;;;;;;4954109;29;20488;-80
2021/01/07 14:07:10;;;;;;;6.80;2.97;;;;;;;;;;4952737;28;20051;-80
2021/01/07 14:09:41;;;;;;;7.38;3.53;;;;;;;;;;4954214;28;20484;-80
2021/01/07 14:12:13;;;;;;;7.10;2.78;;;;;;;;;;4952406;28;20074;-80
2021/01/07 14:14:43;;;;;;;7.78;2.92;;;;;;;;;;4953962;28;20086;-80
2021/01/07 14:17:10;;;;;;;5.70;2.28;;;;;;;;;;4952529;29;20141;-80
2021/01/07 14:19:37;;;;;;;6.18;2.60;;;;;;;;;;4951782;28;20448;-80
2021/01/07 14:22:06;;;;;;;8.18;2.45;;;;;;;;;;4950267;28;20444;-80
2021/01/07 14:24:34;;;;;;;7.32;3.20;;;;;;;;;;4948555;29;20055;-81
2021/01/07 14:27:08;;;;;;;9.20;2.95;;;;;;;;;;4951888;29;20126;-80
2021/01/07 14:29:36;;;;;;;16.13;4.10;;;;;;;;;;4957751;28;20133;-80
2021/01/07 14:32:04;;;;;;;9.68;3.03;;;;;;;;;;4971684;28;20670;-80
2021/01/07 14:34:31;;;;;;;11.02;3.10;;;;;;;;;;4973368;28;20125;-80